PIERNIKOWY BIEG CHARYTATYWNY DLA KRZYŚKA

Organizator:
Fundacja DUM SPIRO, SPERO z siedzibą w Bydgoszczy
Data:
2018-12-09
Miejsce:
Bydgoszcz
Dystans:
5 km
Zgłoszonych:
254
Wystartowało:
223
Nie ukończyło:
0
Ukończyło:
223
Na trasie:
0
Pełne wyniki :
Wyniki uproszczone:
Wyniki nieoficjalne !!!
Klasyfikacje w punktach pomiarowych: Start | Meta
Klasyfikacje wg kategorii: Wszyscy | K-Open | M-Open

MscZawodnikNumerKlubMiejscowośćKrajKategoriaMkatK/MCzas
netto
5km
Różn.Tempo
min/km
Tempo
km/h
     
1TUCZYŃSKI Sylwester Leon 172BYDGOSKIE OKONIEBYDGOSZCZM-Open1M 100:17:34.60 3:3017.1
2JAGODZIŃSKI Mateusz 57BYDGOSKIE OKONIEBYDGOSZCZM-Open2M 200:17:34.73+00:00:003:3017.1
3DEROŃ Waldemar 281 POMORSKA BRYGADA LOGISTYCZNA BYDGOSZCZBYDGOSZCZM-Open3M 300:17:48.86+00:00:203:3316.8
4LEWANDOWSKI Filip 218BYDGOSZCZM-Open4M 400:19:22.66+00:01:493:5215.5
5NAGORZYSKI Arkadiusz 113BIEGAMWSPIERAMMOTYWUJĘBYDGOSZCZM-Open5M 500:20:07.91+00:02:334:0114.9
6JAGIEŁA Bartosz 56TKKF KOLEJARZ BYDGOSZCZ #BIEGACZEBYDGOSZCZM-Open6M 600:20:13.41+00:02:404:0214.8
7SOBCZAK Rafał 97OSIECINYM-Open7M 700:21:03.11+00:03:284:1214.3
8LUTOWSKI Wojciech 321TKKF Kolejarz BydgoszczBYDGOSZCZM-Open8M 800:20:45.54+00:03:304:0914.5
9DROCIAK Michał 34OSOWA GÓRA TEAMBYDGOSZCZM-Open9M 900:21:13.93+00:03:394:1414.1
10PIEKARSKI Paweł 123BYDGOSZCZM-Open10M 1000:21:38.55+00:04:054:1913.9
11PALACZ Wioletta 18BYDGOSZCZK-Open1K 100:21:44.02+00:04:104:2013.8
12MAJDA Adrian 98BYDGOSKIE DZIKIBYDGOSZCZM-Open11M 1100:21:50.54+00:04:214:2213.7
13HEMMERLING Michał 52BYTÓWM-Open12M 1200:21:57.54+00:04:274:2313.7
14KONOPCZYŃSKI Jakub 76BYDGOSZCZM-Open13M 1300:21:43.42+00:04:304:2013.8
15KONARSKA Svetlana 75ŚWIECIEK-Open2K 200:22:05.65+00:04:314:2513.6
16MICHALAK Wojciech 102BYDGOSZCZM-Open14M 1400:22:05.72+00:04:454:2513.6
17KOSIŃSKI Michael 80HARPAGAN TEAM BYDGOSZCZBYDGOSZCZM-Open15M 1500:22:23.41+00:04:494:2813.4
18MIKOŁAJCZAK Tomasz 106BYDGOSZCZM-Open16M 1600:22:20.54+00:04:504:2813.4
19SKONIECZNY Marcin 243FORDON RUNNERSBYDGOSZCZM-Open17M 1700:22:11.99+00:04:574:2613.5
20DROCIAK Jarosław 35BYDGOSZCZM-Open18M 1800:22:38.08+00:05:034:3113.3
21SZAMLEWSKI Paweł 161ŚLESINM-Open19M 1900:22:21.13+00:05:074:2813.4
22BARANOWSKI Roman 236FOREVER TEAMBYDGOSZCZM-Open20M 2000:22:37.79+00:05:094:3113.3
23CIEŚLEWICZ Karol 19OLAFCREWBYDGOSZCZM-Open21M 2100:22:35.23+00:05:104:3113.3
24GŁOWSKI Dariusz 46BYDGOSZCZM-Open22M 2200:22:39.91+00:05:174:3213.2
25NOWACKI Edmund 81PRUSZCZM-Open23M 2300:22:42.04+00:05:244:3213.2
26ŻEGLICZ Marek 201SPÓJNIA BIAŁE BŁOTABIAŁE BŁOTAM-Open24M 2400:22:51.74+00:05:264:3413.1
27SIUDA Sebastian 145SOLECCY BIEGACZEBYDGOSZCZM-Open25M 2500:23:10.68+00:05:454:3812.9
28WELSBERG Bartosz 183BYDGOSZCZM-Open26M 2600:23:18.35+00:05:464:3912.9
29WASIELEWSKI Jacek 180BYDGOSZCZM-Open27M 2700:22:55.92+00:05:474:3513.1
30SZCZYGIELSKI Dawid 162TEAM KULASBYDGOSZCZM-Open28M 2800:22:57.72+00:05:484:3513.1
31ŁOBOCKI Krzysztof 96TKKF KOLEJARZ BYDGOSZCZBYDGOSZCZM-Open29M 2900:23:08.96+00:05:544:3713
32WOJTECKI Łukasz 193SOLECCY BIEGACZESOLEC KUJAWSKIM-Open30M 3000:23:22.09+00:06:084:4012.8
33MRÓWCZYŃSKI Szymon 111ŻNINM-Open31M 3100:23:46.85+00:06:234:4512.6
34BULMAN Kacper 12BYDGOSZCZM-Open32M 3200:23:35.17+00:06:234:4312.7
35SARNECKI Sławomir 142BYDGOSZCZM-Open33M 3300:23:45.97+00:06:244:4512.6
36FIECEK Łukasz 38BYDGOSZCZM-Open34M 3400:23:53.59+00:06:254:4612.6
37KORPAL Emil 79PRONATURA BYDGOSZCZBYDGOSZCZM-Open35M 3500:23:50.38+00:06:304:4612.6
38DĄBROWSKI Arkadiusz 26DĄBRÓWKA NOWAM-Open36M 3600:23:47.87+00:06:394:4512.6
39ORZECHOWSKI Zbigniew 240BYDGOSZCZM-Open37M 3700:23:55.79+00:06:404:4712.5
40WALCZAK Gracjan 178BYDGOSZCZM-Open38M 3800:24:11.27+00:06:424:5012.4
41RADAJEWSKI Roger 130ŚLESINM-Open39M 3900:24:02.73+00:06:484:4812.5
42NOWICKI Olgierd 119BYDGOSZCZM-Open40M 4000:24:11.46+00:06:594:5012.4
43KACZYŃSKI Rafał 65TORUŃM-Open41M 4100:24:27.44+00:07:004:5312.3
44GROBELNA Angelika 48BYDGOSZCZ NA STARTNIEMCZK-Open3K 300:24:24.69+00:07:014:5312.3
45SZYMECZKO Łukasz 168BYDGOSZCZM-Open42M 4200:24:31.03+00:07:094:5412.2
46RUDEWICZ Łukasz 49PAWŁÓWEKM-Open43M 4300:24:28.06+00:07:174:5312.3
47LEWANDOWSKI Adam 208BYDGOSZCZM-Open44M 4400:24:45.99+00:07:224:5712.1
48WASZKIEWICZ Przemysław 181BYDGOSZCZM-Open45M 4500:24:31.29+00:07:234:5412.2
49CZAJA Jarosław 24BYDGOSZCZM-Open46M 4600:24:55.59+00:07:284:5912
50ZUPA Wojciech 200SISU-OWB TEAMBYDGOSZCZM-Open47M 4700:25:00.57+00:07:285:0012
51GIERSZEWSKA Grażyna 44BYDGOSZCZK-Open4K 400:25:00.30+00:07:295:0012
52KWAŚNIEWSKI Waldemar 91MROCZAM-Open48M 4800:24:52.75+00:07:304:5812.1
53CYCKOWSKI Marcin 23BYDGOSZCZM-Open49M 4900:25:03.82+00:07:315:0012
54BUTOWSKI Michał 13SEN O VICTORIBYDGOSZCZM-Open50M 5000:25:09.40+00:07:385:0211.9
55TARCZYŃSKA Marta 171COOKIEFRIENDSRUNBYDGOSZCZYK-Open5K 500:25:05.34+00:07:415:0112
56TANDECKI Paweł 170BYDGOSZCZM-Open51M 5100:24:51.92+00:07:434:5812.1
57GRZELAK Tomasz 220BYDGOSZCZM-Open52M 5200:25:11.37+00:07:505:0211.9
58DOMŻALSKI Kamil 32BYDGOSZCZM-Open53M 5300:25:15.73+00:07:505:0311.9
59DERESZYŃSKA Ewelina 27BYDGOSZCZK-Open6K 600:25:17.43+00:07:535:0311.9
60NAGORZYSKA Sylwia 237BYDGOSZCZK-Open7K 700:25:36.71+00:08:035:0711.7
61RUDOL Sebastian 212M-Open54M 5400:25:45.09+00:08:215:0911.7
62KACZMAREK Łukasz 64BYDGOSZCZM-Open55M 5500:25:38.28+00:08:265:0711.7
63RUDOL Magdalena 211PRĘDOCINK-Open8K 800:25:52.39+00:08:275:1011.6
64FRĄCKOWIAK Waldemar 40BYDGOSZCZM-Open56M 5600:25:46.90+00:08:285:0911.6
65GUŹDZIOŁ Jarek 51WKURW_TEAMSOLEC KUJAWSKIM-Open57M 5700:25:57.18+00:08:315:1111.6
66RENC Patryk 133SERCE TYBETUBYDGOSZCZM-Open58M 5800:26:04.71+00:08:325:1211.5
67SOBCZEK Paweł 70BYDGOSZCZM-Open59M 5900:25:54.05+00:08:445:1011.6
68KLETKIEWICZ Marek 39WŁOCŁAWEKM-Open60M 6000:26:04.03+00:08:465:1211.5
69OJDOWSKI Krzysztof 207KRUSZYNM-Open61M 6100:26:13.57+00:08:515:1411.4
70RACIBORSKI Grzegorz 129TASAK TEAMBYDGOSZCZM-Open62M 6200:26:11.99+00:08:535:1411.5
71KOWAL Michał 82NAKŁO NAD NOTECIĄM-Open63M 6300:26:06.74+00:08:535:1311.5
72KOPACZ Hanna 219BRUM BRUMBYDGOSZCZK-Open9K 900:26:12.66+00:08:535:1411.5
73ANTCZAK Andrzej 216BYDGOSZCZM-Open64M 6400:26:13.40+00:08:575:1411.4
74STRZĘBAŁA Adrian 157BYDGOSZCZM-Open65M 6500:26:28.33+00:08:595:1711.3
75DROCIAK Joanna 36BYDGOSZCZK-Open10K 1000:26:33.67+00:09:005:1811.3
76WOJCIECHCIŃSKA Emilia 30BYDGOSZCZK-Open11K 1100:26:22.22+00:09:025:1611.4
77WOJCIECHOWSKI Jarosląw 5BYDGOSZCZM-Open66M 6600:26:22.00+00:09:025:1611.4
78FRECICHOWSKI Mariusz 234BYDGOSZCZM-Open67M 6700:26:01.01+00:09:045:1211.5
79 241  100:26:22.43+00:09:045:1611.4
80KOTYL Artur 249BYDGOSZCZM-Open68M 6800:26:18.93+00:09:075:1511.4
81JASINIECKI Wojciech 59BYDGOSZCZM-Open69M 6900:26:25.12+00:09:095:1711.4
82DZIATKOWICZ Radosław 37INOWROCŁAWM-Open70M 7000:26:33.92+00:09:135:1811.3
83GACA Anna Maria 42BYDGOSZCZK-Open12K 1200:26:28.29+00:09:175:1711.3
84BESS Anna 6BYDGOSZCZK-Open13K 1300:26:40.81+00:09:185:2011.2
85MAJDA Katarzyna 99BYDGOSKIE DZIKIBYDGOSZCZK-Open14K 1400:26:51.24+00:09:215:2211.2
86MIKOŁAJCZAK Paulina 105BYDGOSZCZK-Open15K 1500:26:52.42+00:09:225:2211.2
87ZIMMERMANN Michał 198OSOWA GÓRA TEAMBYDGOSZCZM-Open71M 7100:26:45.33+00:09:225:2111.2
88GRACZYK Przemysław 47BYDGOSZCZM-Open72M 7200:26:42.40+00:09:305:2011.2
89PRZYBYLSKA Grażyna 127BYDGOSZCZ NA START, PSLABYDGOSZCZK-Open16K 1600:26:55.40+00:09:315:2311.1
90CHROMINSKI Maciej 17BYDGOSZCZM-Open73M 7300:26:54.29+00:09:315:2211.2
91 242  200:26:54.48+00:09:325:2311.1
92KUFLEWICZ Justyna 89BYDGOSZCZK-Open17K 1700:27:00.26+00:09:335:2411.1
93ŁYSAKOWSKI Maciej 246STRZELCE DOLNEM-Open74M 7400:26:50.98+00:09:405:2211.2
94WAJER Marita 175STAFF ENEA BYDGOSZCZ TRIATHLONŚLESINK-Open18K 1800:27:10.45+00:09:445:2611
95NIEMCZEWSKI Jakub 244ŁABISZYNM-Open75M 7500:27:17.27+00:09:525:2711
96BRZEZIŃSKA Marta 11BYDGOSZCZK-Open19K 1900:27:12.83+00:09:545:2611
97ADAMCZYK Agnieszka 31NAKŁO NAD NOTECIĄK-Open20K 2000:27:16.53+00:10:025:2711
98SAS Kasia 143AMATORSIENNOK-Open21K 2100:27:33.91+00:10:085:3010.9
99MALINOWSKI Maciej 16BYDGOSZCZM-Open76M 7600:27:44.02+00:10:175:3210.8
100KALINOWSKA Patrycja 66SOLEC KUJAWSKIK-Open22K 2200:27:42.48+00:10:175:3210.8
101KULCZYŃSKA Małgorzata 230ŻNINK-Open23K 2300:27:48.06+00:10:175:3310.8
102ADAMCZYK Mariusz 1BYDGOSZCZM-Open77M 7700:27:37.45+00:10:215:3110.9
103GRZESZEK Martin 232BYDGOSZCZM-Open78M 7800:27:28.50+00:10:295:2910.9
104ZIRRA Arkadiusz 199BYDGOSZCZM-Open79M 7900:27:52.16+00:10:325:3410.8
105LINKE Robert 248BYDGOSZCZM-Open80M 8000:27:51.11+00:10:325:3410.8
106BROŻYŃSKI Wojciech 10OSÓWIECM-Open81M 8100:27:43.52+00:10:375:3210.8
107JELEŃ Agnieszka 61VEGE RUNNERSBYDGOSZCZK-Open24K 2400:28:02.30+00:10:405:3610.7
108CIESIELSKI Adrian 225NAKŁO NAD NOTECIĄM-Open82M 8200:27:59.82+00:10:455:3610.7
109NUNZEK Agnieszka 282ZOLTOKROLEWSCY#B3KBYDGOSZCZK-Open25K 2500:28:05.38+00:10:545:3710.7
110WOJTYSIAK Dorota 194BYDGOSZCZK-Open26K 2600:28:06.54+00:10:555:3710.7
111SŁAWIŃSKI Michał 233BYDGOSZCZM-Open83M 8300:27:55.90+00:10:565:3510.7
112MUSIAŁ Piotr 221WOLONTARIUSZ SALUS HOMININAKŁO NAD NOTECIĄM-Open84M 8400:28:11.95+00:10:595:3810.6
113PIOTROWSKA Justyna 215BYDGOSZCZK-Open27K 2700:28:22.65+00:11:005:4010.6
114KWIECIŃSKA Katarzyna 92SOLEC KUJAWSKIK-Open28K 2800:28:30.29+00:11:015:4210.5
115DANIELEK Ewa 25WARSZAWAK-Open29K 2900:28:25.57+00:11:045:4110.6
116WIOSNA Tomasz 186BIEGAJĄCE ŻÓŁWIE ITBYDGOSZCZM-Open85M 8500:28:19.80+00:11:065:4010.6
117 245  300:28:24.36+00:11:075:4010.6
118PRZYBYLSKI Mariusz 128BYDGOSZCZ NA STARTBYDGOSZCZM-Open86M 8600:28:33.33+00:11:105:4210.5
119PAŁASZYŃSKA Anna 87RUN PASJABYDGOSZCZK-Open30K 3000:28:31.21+00:11:125:4210.5
120OLKOWSKI Adam 217BYDGOSZCZM-Open87M 8700:28:40.69+00:11:215:4410.5
121LIPNIEWSKA Magdalena 95KOLNO 41A 86-200CHELMNOK-Open31K 3100:28:42.14+00:11:275:4410.5
122TYKWIŃSKA Agnieszka 173BYDGOSZCZK-Open32K 3200:28:53.99+00:11:305:4610.4
123CYCKOWSKA Karolina 22BYDGOSZCZK-Open33K 3300:29:08.78+00:11:355:4910.3
124JĘDRZEJEWSKA Danuta 63BYDGOSZCZK-Open34K 3400:28:55.80+00:11:355:4710.4
125NALEWALSKA Justyna 114SECE TYBETUBYDGOSZCZK-Open35K 3500:28:58.93+00:11:365:4710.4
126OLEJNICZAK Patrycja 121BAŻANT TEAMBYDGOSZCZK-Open36K 3600:29:00.69+00:11:405:4810.3
127FRYDRYCHOWICZ Lilianna 41BYDGOSZCZK-Open37K 3700:29:05.82+00:11:415:4910.3
128NIEMCZEWSKI Mirosław 116NIEŁABISZYNM-Open88M 8800:29:05.50+00:11:425:4910.3
129KIERSKI Maciej 72BYDGOSZCZM-Open89M 8900:29:06.97+00:11:425:4910.3
130SZCZYGIELSKI Leszek 163OL-TRANSBYDGOSZCZM-Open90M 9000:29:05.63+00:11:445:4910.3
131ŁOSIŃSKI Łukasz 228BYDGOSZCZM-Open91M 9100:29:04.78+00:11:455:4910.3
132ONICHIMIUK Robert 73BYDGOSZCZM-Open92M 9200:28:45.30+00:11:455:4510.4
133BEJM Bartosz 250BYDGOSZCZM-Open93M 9300:28:58.78+00:11:465:4710.4
134BINGER Katarzyna 8CHOJNICEK-Open38K 3800:29:01.49+00:11:495:4810.3
135MIRŻ Piotr 110BYDGOSZCZM-Open94M 9400:29:10.75+00:11:505:5010.3
136MARCHLEWSKI Tomasz 235ZAWISZAZIELONCZYNM-Open95M 9500:28:47.78+00:11:515:4510.4
137BIERNACKA Anka 7BYDGOSZCZK-Open39K 3900:29:10.59+00:11:525:5010.3
138KOPROWICZ Kasia 77ŚWIECIEK-Open40K 4000:29:21.83+00:11:555:5210.2
139RAPKIEWICZ Tomasz 132BYDGOSZCZM-Open96M 9600:29:13.37+00:11:555:5010.3
140KOPROWICZ Adam 78SWIECIEM-Open97M 9700:29:22.96+00:11:565:5210.2
141RYDELSKA Kinga 213BYDGOSZCZK-Open41K 4100:29:27.03+00:11:575:5310.2
142BYSTRZYŃSKI Jan 14BYDGOSZCZM-Open98M 9800:29:31.81+00:12:035:5410.2
143BADYNIAK Mateusz 4BYDGOSZCZM-Open99M 9900:29:45.93+00:12:175:5710.1
144GACKOWSKI Edward 43BYDGOSZCZ NA STARTMĘŻCZYZNAM-Open100M 10000:29:43.27+00:12:195:5610.1
145MIĘTUS Marta 103BYDGOSZCZK-Open42K 4200:29:54.60+00:12:245:5810
146JĘDRZEJEWSKA Karolina 62BYDGOSZCZK-Open43K 4300:30:01.23+00:12:276:0010
147DRERSKA Agnieszka 206BIAŁE BŁOTAK-Open44K 4400:29:59.62+00:12:366:0010
148DUSZYŃSKI Filip 148M-Open101M 10100:30:04.79+00:12:396:0110
149KUŻNIAK Helena 189NIEMCZK-Open45K 4500:30:05.28+00:12:426:0110
150CISEWSKI Mateusz 20BYDGOSZCZM-Open102M 10200:29:45.71+00:12:495:5710.1
151SOBOTA Beata 152BIAŁE BŁOTAK-Open46K 4600:30:04.41+00:12:516:0010
152KOTLAREK Weronika 239MUROWANIECK-Open47K 4700:30:41.96+00:13:096:089.8
153POLITOWSKI Paweł 126ROWERYBYDGOSZCZ.PLBYDGOSZCZM-Open103M 10300:30:03.64+00:13:116:0010
154NOWICKA Tatiana 118ŚWIECIEK-Open48K 4800:30:35.17+00:13:206:079.8
155KŁOS Katarzyna 74ŁOCHOWOK-Open49K 4900:30:52.11+00:13:216:109.7
156SZYMAŃSKI Robert 167BYDGOSZCZM-Open104M 10400:30:52.13+00:13:216:109.7
157KULWAS Magdalena 90BYDGOSZCZK-Open50K 5000:30:51.22+00:13:226:109.7
158SŁOMSKA Monika 149697570500ŚWIECIEK-Open51K 5100:30:36.59+00:13:236:079.8
159WALCZAK Joanna 177BYDGOSZCZK-Open52K 5200:30:51.39+00:13:236:109.7
160ASTUKIEWICZ Tomasz 3BYDGOSZCZM-Open105M 10500:30:37.34+00:13:276:079.8
161KOTLAREK Adam 238MUROWANIECM-Open106M 10600:30:59.07+00:13:276:119.7
162SAWIEŁAJC Michał 144BYDGOSZCZM-Open107M 10700:30:42.64+00:13:286:089.8
163SPLITT Anna 154MROCZAK-Open53K 5300:31:00.31+00:13:316:129.7
164CYBUL Anna 21BYDGOSZCZK-Open54K 5400:31:02.51+00:13:336:129.7
165ZZZ Xxx 319  400:31:08.72+00:13:526:139.6
166GUMIENNY Maciej 204BYDGOSZCZM-Open108M 10800:31:30.89+00:13:546:189.5
167KOMINIK Mariusz 320BYDGOSZCZM-Open109M 10900:31:10.68+00:13:546:149.6
168KOWALSKA Justyna 83BYDGOSZCZK-Open55K 5500:31:15.35+00:13:546:159.6
169SOBOCZYŃSKA Barbara 151KRUSZYNK-Open56K 5600:31:26.10+00:13:556:179.5
170LELEWSKA Aleksandra 94JANIKOWOK-Open57K 5700:31:12.70+00:13:576:149.6
171PIK Aleksandra 124BIAŁE BŁOTAK-Open58K 5800:31:22.28+00:14:176:169.6
172SZOPIŃSKA Justyna 164SEROCKK-Open59K 5900:31:22.41+00:14:196:169.6
173SZOPIŃSKI Wojtek 165SEROCKM-Open110M 11000:31:24.62+00:14:196:169.6
174NOSKOWIAK-BAJNO Alicja 117BORÓWNOK-Open60K 6000:32:05.56+00:14:396:259.4
175GRZYBOWSKA Paulina 50BYDGOSZCZK-Open61K 6100:32:00.42+00:14:426:249.4
176KALINOWSKI Dariusz 67SOLEC KUJAWSKIM-Open111M 11100:32:09.20+00:14:436:259.3
177MALCZEWSKA Mirka 274BYDGOSZCZK-Open62K 6200:32:13.72+00:14:556:269.3
178GRUDZKA Estera 227NAKŁO NAD NOTECIĄK-Open63K 6300:32:28.33+00:15:126:299.2
179KĄKOLEWSKA Monika 71JANIKOWOK-Open64K 6400:32:30.42+00:15:136:309.2
180SAK Ewa 222WOLONTARIUSZ SALUS HOMININAKŁO NAD NOTECIĄK-Open65K 6500:32:28.15+00:15:146:299.2
181WESOŁOWSKI Mateusz 214BYDGOSZCZM-Open112M 11200:32:39.32+00:15:186:329.2
182MAJEWSKA Natalia 100NAKŁO NAD NOTECIĄK-Open66K 6600:32:47.99+00:15:186:339.1
183MIROWSKI Tomasz 109BYDGOSZCZM-Open113M 11300:32:45.79+00:15:246:339.2
184MINISZEWSKA Irena 107BYDGOSZCZK-Open67K 6700:32:35.03+00:15:286:319.2
185WELSBERG Magdalena 184BYDGOSZCZK-Open68K 6800:33:09.34+00:15:396:389
186RYBKA-RUDEWICZ Monika 140OL-TRANSBYDGOSZCZK-Open69K 6900:32:50.35+00:15:406:349.1
187WITKOWSKA Natalia 93BYDGOSZCZK-Open70K 7000:32:48.74+00:15:406:339.1
188BROŻYŃSKA Anna 229OSÓWEKK-Open71K 7100:33:18.89+00:16:116:399
189LEWANDOWSKI Robert 202BYDGOSZCZM-Open114M 11400:33:42.74+00:16:156:448.9
190SPEIER Magdalena 153BYDGOSZCZK-Open72K 7200:33:22.12+00:16:166:409
191BŁASZCZYK Joanna 9BYDGOSZCZK-Open73K 7300:33:52.26+00:16:196:468.9
192DRAŻDŻEWSKI Marian 33RTW BYDGOSTIABYDGOSZCZM-Open115M 11500:33:29.46+00:16:246:429
193KANIA Daniel 68BYDGOSZCZM-Open116M 11600:34:29.46+00:17:146:548.7
194KLETKIEWICZ Karolina 45BYDGOSZCZK-Open74K 7400:34:50.56+00:17:256:588.6
195ROZPŁOCH Karolina 138DRĄŻNOK-Open75K 7500:35:04.01+00:17:347:008.6
196NASKRĘT Daria 115BYDGOSZCZK-Open76K 7600:35:18.58+00:17:507:038.5
197REZMER Angelina 290BYDGOSZCZK-Open77K 7700:35:18.94+00:17:507:038.5
198SZPAKOWSKA Ewelina 313BYDGOSZCZK-Open78K 7800:34:49.34+00:17:596:588.6
199DANIELAK Adam 203BYDGOSZCZM-Open117M 11700:35:22.03+00:18:017:048.5
200JĘDRZEJEWSKA Anna 205TORUŃK-Open79K 7900:36:15.09+00:18:457:158.3
201ROMPALSKA Lucyna 136MROCZAK-Open80K 8000:36:36.02+00:19:107:198.2
202ROMPALSKI Tomek 137MROCZAM-Open118M 11800:36:36.06+00:19:107:198.2
203WNUK Małgorzata 191MROCZAK-Open81K 8100:36:38.07+00:19:127:198.2
204WNUK Artur 192MROCZAM-Open119M 11900:36:37.33+00:19:127:198.2
205WEINEROWSKA Magdalena 182BYDGOSZCZK-Open82K 8200:36:46.22+00:19:437:218.2
206SZPECHCIŃSKA Natalia 166KOZIA GÓRAK-Open83K 8300:37:21.12+00:19:557:288
207SKORUPA Małgorzata 147KOSOWOK-Open84K 8400:37:21.86+00:19:557:288
208KULCZYŃSKA Dagmara 231ŻNINK-Open85K 8500:37:26.89+00:19:567:298
209MARCINIAK Monika 226NAKŁO NAD NOTECIĄK-Open86K 8600:37:13.02+00:19:587:268.1
210CIESIELSKA Agnieszka 224FUNDACJA SALUS HONIKINAKŁO NAD NOTECIĄK-Open87K 8700:37:12.85+00:19:587:268.1
211SMOLIŃSKA Daria 223WOLONTARIUSZ SALUS HOMININAKŁO NAD NOTECIĄK-Open88K 8800:37:13.58+00:19:597:268.1
212WENGLER Sebastian 185BYDGOSZCZM-Open120M 12000:38:15.57+00:20:557:397.8
213RAPKIEWICZ Ilona 131BYDGOSZCZK-Open89K 8900:39:31.14+00:22:127:547.6
214WOŹNIAK Monika 196BYDGOSZCZK-Open90K 9000:39:34.75+00:22:167:547.6
215WALCZAK Marcin 176BYDGOSZCZM-Open121M 12100:39:58.54+00:22:437:597.5
216KRZYWDZIŃSKA Alicja 85BYDGOSZCZK-Open91K 9100:41:14.02+00:23:528:147.3
217KRZYWDZIŃSKI Daniel 86BYDGOSZCZM-Open122M 12200:41:13.85+00:23:538:147.3
218KUBIAK Mariusz 88BYDGOSZCZM-Open123M 12300:44:36.03+00:27:188:556.7
219DERESZYŃSKA Teresa 84BYDGOSZCZK-Open92K 9200:46:03.49+00:29:099:126.5
220CAŁCZYŃSKA Barbara 15DZIEMIONNAK-Open93K 9300:50:26.19+00:33:3310:055.9
221SŁAWIŃSKI Szymon 247BYDGOSZCZM-Open124M 12400:50:25.42+00:33:3410:056
222POPIELASZ Marcin 29BYDGOSZCZM-Open125M 12500:50:25.83+00:33:3510:055.9
223SKORUPA Krzysztof 146MROCZAM-Open126M 12600:50:28.33+00:33:3510:055.9
Znaleziono 223 wynik(ów)